createdAt,value
2023-03-11T00:00:26.043Z,3.90
2023-03-11T00:01:26.030Z,4.20
2023-03-11T00:02:26.040Z,4.80
2023-03-11T00:03:26.004Z,1.80
2023-03-11T00:04:25.987Z,3.80
2023-03-11T00:05:26.058Z,4.80
2023-03-11T00:06:25.998Z,4.40
2023-03-11T00:07:25.986Z,5.50
2023-03-11T00:08:25.942Z,4.60
2023-03-11T00:09:25.937Z,4.60
2023-03-11T00:10:27.400Z,4.80
2023-03-11T00:11:25.913Z,5.00
2023-03-11T00:12:25.905Z,4.90
2023-03-11T00:13:25.901Z,5.40
2023-03-11T00:14:25.881Z,5.00
2023-03-11T00:15:25.874Z,5.20
2023-03-11T00:16:25.931Z,6.50
2023-03-11T00:17:25.867Z,5.00
2023-03-11T00:18:25.843Z,6.00
2023-03-11T00:19:25.835Z,5.20
2023-03-11T00:20:25.820Z,4.80
2023-03-11T00:21:25.807Z,5.90
2023-03-11T00:22:25.794Z,4.10
2023-03-11T00:23:25.836Z,5.00
2023-03-11T00:24:25.772Z,5.70
2023-03-11T00:25:25.767Z,4.90
2023-03-11T00:26:25.749Z,4.70
2023-03-11T00:27:25.741Z,4.50
2023-03-11T00:28:25.726Z,4.60
2023-03-11T00:29:25.792Z,4.40
2023-03-11T00:30:25.707Z,6.30
2023-03-11T00:31:25.695Z,5.00
2023-03-11T00:32:25.751Z,6.70
2023-03-11T00:33:25.681Z,5.10
2023-03-11T00:34:25.665Z,4.90
2023-03-11T00:35:25.663Z,4.70
2023-03-11T00:36:25.648Z,5.40
2023-03-11T00:37:25.630Z,5.40
2023-03-11T00:38:25.672Z,4.50
2023-03-11T00:39:25.641Z,3.60
2023-03-11T00:40:25.597Z,4.70
2023-03-11T00:41:25.598Z,4.20
2023-03-11T00:42:25.588Z,3.50
2023-03-11T00:43:25.565Z,4.20
2023-03-11T00:44:25.553Z,4.00
2023-03-11T00:45:25.543Z,4.30
2023-03-11T00:46:25.615Z,4.10
2023-03-11T00:47:25.522Z,4.30
2023-03-11T00:48:25.511Z,4.10
2023-03-11T00:49:25.499Z,3.80
2023-03-11T00:50:25.489Z,3.80
2023-03-11T00:51:25.478Z,3.20
2023-03-11T00:52:25.467Z,3.50
2023-03-11T00:53:25.453Z,3.70
2023-03-11T00:54:25.443Z,3.50
2023-03-11T00:55:25.460Z,3.30
2023-03-11T00:56:25.420Z,2.70
2023-03-11T00:57:25.413Z,3.00
2023-03-11T00:58:25.403Z,2.50
2023-03-11T00:59:25.391Z,3.00
2023-03-11T01:00:25.373Z,3.20
2023-03-11T01:01:25.476Z,2.80
2023-03-11T01:02:25.354Z,2.50
2023-03-11T01:03:25.350Z,2.60
2023-03-11T01:04:25.375Z,2.20
2023-03-11T01:05:25.323Z,1.10
2023-03-11T01:06:30.158Z,2.60
2023-03-11T01:07:26.328Z,2.40
2023-03-11T01:08:25.288Z,2.50
2023-03-11T01:09:25.278Z,2.40
2023-03-11T01:10:25.281Z,2.30
2023-03-11T01:11:25.282Z,2.40
2023-03-11T01:12:25.245Z,2.40
2023-03-11T01:13:25.234Z,2.10
2023-03-11T01:14:25.224Z,2.50
2023-03-11T01:15:25.222Z,2.10
2023-03-11T01:16:25.273Z,2.20
2023-03-11T01:17:25.193Z,2.20
2023-03-11T01:18:25.181Z,2.40
2023-03-11T01:19:25.173Z,2.20
2023-03-11T01:20:25.164Z,1.70
2023-03-11T01:21:25.151Z,2.20
2023-03-11T01:22:25.137Z,1.80
2023-03-11T01:23:25.136Z,2.20
2023-03-11T01:24:25.115Z,2.00
2023-03-11T01:25:25.114Z,1.90
2023-03-11T01:26:25.094Z,2.00
2023-03-11T01:27:25.118Z,1.60
2023-03-11T01:28:25.072Z,1.60
2023-03-11T01:29:25.063Z,1.90
2023-03-11T01:30:25.053Z,1.90
2023-03-11T01:31:25.088Z,1.80
2023-03-11T01:32:25.042Z,1.80
2023-03-11T01:33:25.024Z,1.80
2023-03-11T01:34:25.009Z,2.30
2023-03-11T01:35:25.021Z,1.90
2023-03-11T01:36:24.986Z,2.20
2023-03-11T01:37:24.978Z,2.00
2023-03-11T01:38:24.964Z,2.10
2023-03-11T01:39:24.950Z,2.40
2023-03-11T01:40:24.948Z,2.20
2023-03-11T01:41:24.928Z,2.50
2023-03-11T01:42:24.917Z,1.90
2023-03-11T01:43:24.930Z,2.10
2023-03-11T01:44:24.895Z,2.00
2023-03-11T01:45:24.885Z,2.30
2023-03-11T01:46:24.941Z,2.20
2023-03-11T01:47:24.863Z,2.10
2023-03-11T01:48:24.850Z,1.90
2023-03-11T01:49:24.844Z,1.90
2023-03-11T01:50:24.829Z,2.00
2023-03-11T01:51:24.822Z,2.00
2023-03-11T01:52:24.808Z,2.30
2023-03-11T01:53:24.794Z,2.30
2023-03-11T01:54:24.783Z,2.20
2023-03-11T01:55:24.774Z,2.40
2023-03-11T01:56:24.761Z,1.60
2023-03-11T01:57:24.752Z,2.10
2023-03-11T01:58:24.743Z,2.40
2023-03-11T01:59:24.758Z,1.90
2023-03-11T02:00:24.723Z,2.10
2023-03-11T02:01:24.805Z,2.00
2023-03-11T02:02:24.698Z,1.70
2023-03-11T02:03:24.687Z,1.60
2023-03-11T02:04:24.673Z,1.80
2023-03-11T02:05:24.664Z,1.70
2023-03-11T02:06:24.660Z,2.00
2023-03-11T02:07:24.644Z,1.50
2023-03-11T02:08:24.635Z,1.80
2023-03-11T02:09:24.619Z,1.70
2023-03-11T02:10:24.620Z,2.10
2023-03-11T02:11:24.607Z,1.20
2023-03-11T02:12:24.589Z,2.00
2023-03-11T02:13:24.581Z,1.80
2023-03-11T02:14:24.568Z,2.40
2023-03-11T02:15:24.589Z,2.00
2023-03-11T02:16:24.607Z,2.40
2023-03-11T02:17:24.539Z,1.70
2023-03-11T02:18:24.529Z,1.90
2023-03-11T02:19:24.519Z,1.80
2023-03-11T02:20:24.506Z,1.30
2023-03-11T02:21:24.509Z,1.90
2023-03-11T02:22:24.486Z,1.80
2023-03-11T02:23:24.480Z,1.60
2023-03-11T02:24:24.467Z,1.60
2023-03-11T02:25:24.457Z,1.70
2023-03-11T02:26:24.442Z,1.80
2023-03-11T02:27:24.434Z,2.00
2023-03-11T02:28:24.422Z,1.90
2023-03-11T02:29:24.415Z,2.20
2023-03-11T02:30:24.398Z,1.70
2023-03-11T02:31:24.448Z,2.00
2023-03-11T02:32:24.449Z,2.00
2023-03-11T02:33:24.375Z,2.10
2023-03-11T02:34:24.363Z,2.60
2023-03-11T02:35:24.354Z,2.00
2023-03-11T02:36:24.337Z,2.20
2023-03-11T02:37:24.328Z,2.30
2023-03-11T02:38:24.324Z,2.30
2023-03-11T02:39:24.307Z,1.90
2023-03-11T02:40:24.293Z,2.00
2023-03-11T02:41:24.285Z,1.40
2023-03-11T02:42:24.281Z,2.90
2023-03-11T02:43:24.269Z,2.30
2023-03-11T02:44:24.250Z,1.90
2023-03-11T02:45:24.264Z,2.10
2023-03-11T02:46:24.269Z,1.80
2023-03-11T02:47:24.243Z,1.90
2023-03-11T02:48:24.216Z,1.70
2023-03-11T02:49:24.193Z,2.10
2023-03-11T02:50:24.185Z,1.90
2023-03-11T02:51:24.176Z,1.70
2023-03-11T02:52:24.157Z,2.40
2023-03-11T02:53:24.148Z,2.00
2023-03-11T02:54:24.137Z,1.90
2023-03-11T02:55:24.130Z,2.20
2023-03-11T02:56:24.113Z,2.10
2023-03-11T02:57:24.108Z,1.90
2023-03-11T02:58:24.092Z,2.10
2023-03-11T02:59:24.092Z,1.90
2023-03-11T03:00:24.078Z,2.30
2023-03-11T03:01:24.057Z,2.20
2023-03-11T03:02:24.053Z,2.20
2023-03-11T03:03:24.059Z,2.20
2023-03-11T03:04:24.096Z,2.10
2023-03-11T03:05:24.018Z,2.50
2023-03-11T03:06:24.003Z,2.60
2023-03-11T03:07:23.997Z,2.20
2023-03-11T03:08:23.984Z,2.10
2023-03-11T03:09:23.974Z,2.30
2023-03-11T03:10:23.971Z,2.30
2023-03-11T03:11:23.951Z,2.20
2023-03-11T03:12:23.942Z,2.30
2023-03-11T03:13:23.928Z,2.80
2023-03-11T03:14:23.919Z,2.80
2023-03-11T03:15:23.905Z,3.00
2023-03-11T03:16:23.950Z,2.30
2023-03-11T03:17:23.956Z,2.80
2023-03-11T03:18:23.878Z,3.30
2023-03-11T03:19:23.907Z,2.60
2023-03-11T03:20:23.861Z,2.90
2023-03-11T03:21:23.844Z,2.60
2023-03-11T03:22:23.837Z,3.30
2023-03-11T03:23:23.817Z,3.10
2023-03-11T03:24:23.814Z,3.20
2023-03-11T03:25:23.803Z,3.50
2023-03-11T03:26:23.805Z,3.10
2023-03-11T03:27:23.776Z,3.20
2023-03-11T03:28:23.767Z,3.00
2023-03-11T03:29:23.754Z,3.10
2023-03-11T03:30:23.748Z,3.00
2023-03-11T03:31:23.786Z,3.50
2023-03-11T03:32:23.804Z,3.20
2023-03-11T03:33:23.709Z,3.40
2023-03-11T03:34:23.707Z,3.30
2023-03-11T03:35:23.727Z,3.00
2023-03-11T03:36:23.680Z,3.10
2023-03-11T03:37:23.666Z,3.20
2023-03-11T03:38:23.657Z,3.30
2023-03-11T03:39:23.643Z,3.70
2023-03-11T03:40:23.641Z,2.80
2023-03-11T03:41:23.639Z,3.80
2023-03-11T03:42:23.613Z,3.80
2023-03-11T03:43:23.602Z,4.00
2023-03-11T03:44:23.600Z,4.60
2023-03-11T03:45:23.588Z,4.20
2023-03-11T03:46:23.653Z,3.90
2023-03-11T03:47:23.574Z,4.80
2023-03-11T03:48:23.552Z,4.60
2023-03-11T03:49:23.533Z,5.50
2023-03-11T03:50:23.534Z,5.40
2023-03-11T03:51:23.542Z,5.40
2023-03-11T03:52:23.503Z,4.80
2023-03-11T03:53:23.496Z,4.30
2023-03-11T03:54:23.487Z,4.70
2023-03-11T03:55:23.475Z,4.90
2023-03-11T03:56:23.499Z,4.60
2023-03-11T03:57:23.515Z,4.20
2023-03-11T03:58:23.516Z,4.20
2023-03-11T03:59:23.557Z,6.20
2023-03-11T04:00:23.564Z,4.70
2023-03-11T04:01:23.566Z,4.20
2023-03-11T04:02:23.602Z,4.50
2023-03-11T04:03:23.436Z,4.40
2023-03-11T04:04:23.376Z,3.90
2023-03-11T04:05:23.365Z,3.80
2023-03-11T04:06:23.360Z,3.80
2023-03-11T04:07:23.370Z,3.00
2023-03-11T04:08:23.336Z,3.20
2023-03-11T04:09:23.325Z,3.00
2023-03-11T04:10:23.318Z,3.40
2023-03-11T04:11:23.304Z,3.10
2023-03-11T04:12:23.328Z,2.90
2023-03-11T04:13:23.296Z,2.40
2023-03-11T04:14:23.279Z,2.80
2023-03-11T04:15:23.268Z,2.70
2023-03-11T04:16:23.347Z,2.90
2023-03-11T04:17:23.245Z,2.70
2023-03-11T04:18:23.229Z,2.30
2023-03-11T04:19:23.211Z,2.40
2023-03-11T04:20:23.210Z,2.30
2023-03-11T04:21:23.189Z,2.30
2023-03-11T04:22:23.197Z,2.30
2023-03-11T04:23:23.197Z,2.30
2023-03-11T04:24:23.160Z,2.00
2023-03-11T04:25:23.151Z,2.20
2023-03-11T04:26:23.159Z,2.10
2023-03-11T04:27:23.126Z,1.70
2023-03-11T04:28:23.116Z,2.10
2023-03-11T04:29:23.101Z,2.50
2023-03-11T04:30:23.094Z,2.00
2023-03-11T04:31:23.236Z,2.40
2023-03-11T04:32:23.116Z,2.00
2023-03-11T04:33:23.057Z,2.40
2023-03-11T04:34:23.050Z,2.10
2023-03-11T04:35:23.076Z,1.80
2023-03-11T04:36:23.032Z,1.80
2023-03-11T04:37:23.014Z,1.90
2023-03-11T04:38:23.008Z,2.10
2023-03-11T04:39:23.040Z,2.00
2023-03-11T04:40:22.979Z,1.80
2023-03-11T04:41:22.998Z,2.40
2023-03-11T04:42:22.956Z,2.00
2023-03-11T04:43:22.949Z,2.20
2023-03-11T04:44:22.950Z,2.20
2023-03-11T04:45:22.925Z,1.60
2023-03-11T04:46:23.036Z,1.70
2023-03-11T04:47:22.902Z,1.80
2023-03-11T04:48:22.892Z,1.80
2023-03-11T04:49:22.879Z,2.10
2023-03-11T04:50:22.869Z,2.40
2023-03-11T04:51:22.866Z,2.10
2023-03-11T04:52:22.849Z,2.00
2023-03-11T04:53:22.836Z,1.90
2023-03-11T04:54:22.853Z,1.60
2023-03-11T04:55:22.839Z,2.20
2023-03-11T04:56:22.809Z,2.30
2023-03-11T04:57:22.809Z,1.90
2023-03-11T04:58:22.821Z,1.80
2023-03-11T04:59:22.776Z,1.80
2023-03-11T05:00:22.763Z,1.60
2023-03-11T05:01:22.843Z,1.90
2023-03-11T05:02:22.744Z,2.40
2023-03-11T05:03:22.782Z,1.90
2023-03-11T05:04:22.842Z,1.70
2023-03-11T05:05:22.703Z,1.60
2023-03-11T05:06:22.695Z,1.80
2023-03-11T05:07:22.679Z,1.90
2023-03-11T05:08:22.672Z,1.80
2023-03-11T05:09:22.668Z,1.60
2023-03-11T05:10:22.872Z,1.70
2023-03-11T05:11:22.669Z,1.80
2023-03-11T05:12:22.629Z,1.70
2023-03-11T05:13:22.628Z,1.40
2023-03-11T05:14:22.614Z,1.60
2023-03-11T05:15:22.601Z,1.70
2023-03-11T05:16:22.649Z,1.60
2023-03-11T05:17:22.577Z,1.70
2023-03-11T05:18:22.564Z,1.40
2023-03-11T05:19:22.550Z,1.70
2023-03-11T05:20:22.546Z,1.50
2023-03-11T05:21:22.530Z,1.40
2023-03-11T05:22:22.525Z,1.70
2023-03-11T05:23:22.506Z,1.60
2023-03-11T05:24:22.498Z,1.50
2023-03-11T05:25:22.483Z,1.80
2023-03-11T05:26:22.483Z,1.60
2023-03-11T05:27:22.490Z,1.60
2023-03-11T05:28:22.459Z,1.40
2023-03-11T05:29:22.447Z,1.30
2023-03-11T05:30:22.432Z,1.70
2023-03-11T05:31:22.481Z,1.60
2023-03-11T05:32:22.449Z,2.10
2023-03-11T05:33:22.399Z,2.20
2023-03-11T05:34:22.398Z,2.10
2023-03-11T05:35:22.428Z,2.00
2023-03-11T05:36:22.371Z,1.90
2023-03-11T05:37:22.368Z,2.00
2023-03-11T05:38:22.349Z,2.10
2023-03-11T05:39:22.336Z,2.00
2023-03-11T05:40:22.327Z,2.10
2023-03-11T05:41:22.319Z,2.50
2023-03-11T05:42:22.308Z,2.00
2023-03-11T05:43:22.326Z,2.10
2023-03-11T05:44:22.292Z,2.30
2023-03-11T05:45:22.280Z,2.40
2023-03-11T05:46:22.293Z,2.40
2023-03-11T05:47:22.251Z,1.90
2023-03-11T05:48:22.246Z,2.40
2023-03-11T05:49:22.229Z,2.20
2023-03-11T05:50:22.227Z,2.80
2023-03-11T05:51:22.213Z,2.50
2023-03-11T05:52:22.200Z,2.50
2023-03-11T05:53:22.198Z,2.30
2023-03-11T05:54:22.180Z,2.30
2023-03-11T05:55:22.165Z,2.70
2023-03-11T05:56:22.164Z,2.50
2023-03-11T05:57:22.146Z,3.00
2023-03-11T05:58:22.205Z,2.70
2023-03-11T05:59:22.140Z,2.50
2023-03-11T06:00:22.110Z,2.90
2023-03-11T06:01:22.097Z,2.50
2023-03-11T06:02:22.092Z,2.50
2023-03-11T06:03:22.082Z,2.40
2023-03-11T06:04:22.155Z,2.80
2023-03-11T06:05:22.109Z,2.70
2023-03-11T06:06:22.053Z,2.50
2023-03-11T06:07:22.038Z,2.80
2023-03-11T06:08:22.025Z,2.40
2023-03-11T06:09:22.023Z,2.80
2023-03-11T06:10:21.998Z,2.90
2023-03-11T06:11:21.988Z,2.60
2023-03-11T06:12:21.977Z,2.10
2023-03-11T06:13:21.965Z,3.00
2023-03-11T06:14:22.413Z,3.00
2023-03-11T06:15:21.970Z,2.60
2023-03-11T06:16:21.974Z,2.90
2023-03-11T06:17:21.921Z,2.50
2023-03-11T06:18:21.917Z,2.20
2023-03-11T06:19:21.910Z,2.90
2023-03-11T06:20:21.906Z,3.20
2023-03-11T06:21:21.880Z,2.80
2023-03-11T06:22:21.866Z,3.50
2023-03-11T06:23:21.861Z,3.80
2023-03-11T06:24:21.844Z,3.70
2023-03-11T06:25:21.833Z,4.20
2023-03-11T06:26:21.825Z,4.90
2023-03-11T06:27:21.814Z,4.50
2023-03-11T06:28:21.802Z,4.30
2023-03-11T06:29:21.794Z,4.50
2023-03-11T06:30:21.778Z,5.60
2023-03-11T06:31:21.943Z,4.80
2023-03-11T06:32:21.895Z,4.80
2023-03-11T06:33:21.747Z,4.60
2023-03-11T06:34:21.749Z,4.80
2023-03-11T06:35:21.728Z,5.20
2023-03-11T06:36:21.722Z,4.90
2023-03-11T06:37:21.702Z,5.80
2023-03-11T06:38:21.690Z,4.80
2023-03-11T06:39:21.685Z,5.40
2023-03-11T06:40:21.673Z,4.90
2023-03-11T06:41:21.659Z,5.10
2023-03-11T06:42:21.657Z,5.20
2023-03-11T06:43:21.633Z,5.00
2023-03-11T06:44:21.647Z,4.80
2023-03-11T06:45:21.621Z,4.80
2023-03-11T06:46:21.711Z,4.40
2023-03-11T06:47:21.616Z,4.30
2023-03-11T06:48:21.591Z,4.50
2023-03-11T06:49:21.570Z,4.10
2023-03-11T06:50:21.563Z,4.20
2023-03-11T06:51:21.589Z,3.70
2023-03-11T06:52:21.540Z,4.30
2023-03-11T06:53:21.528Z,4.20
2023-03-11T06:54:21.517Z,3.80
2023-03-11T06:55:21.507Z,3.70
2023-03-11T06:56:21.511Z,3.50
2023-03-11T06:57:21.483Z,4.10
2023-03-11T06:58:21.471Z,3.80
2023-03-11T06:59:21.610Z,3.80
2023-03-11T07:00:21.468Z,8.70
2023-03-11T07:01:21.528Z,5.50
2023-03-11T07:02:21.430Z,5.40
2023-03-11T07:03:21.441Z,4.10
2023-03-11T07:04:21.437Z,4.70
2023-03-11T07:05:21.397Z,3.70
2023-03-11T07:06:21.382Z,4.40
2023-03-11T07:07:21.384Z,3.70
2023-03-11T07:08:21.366Z,3.30
2023-03-11T07:09:21.350Z,3.70
2023-03-11T07:10:21.342Z,3.60
2023-03-11T07:11:21.327Z,2.90
2023-03-11T07:12:21.316Z,3.10
2023-03-11T07:13:21.306Z,2.70
2023-03-11T07:14:21.300Z,3.10
2023-03-11T07:15:21.287Z,3.00
2023-03-11T07:16:21.352Z,2.80
2023-03-11T07:17:21.329Z,2.70
2023-03-11T07:18:21.253Z,2.80
2023-03-11T07:19:21.272Z,2.70
2023-03-11T07:20:21.241Z,2.80
2023-03-11T07:21:21.333Z,2.80
2023-03-11T07:22:21.213Z,2.50
2023-03-11T07:23:21.761Z,2.70
2023-03-11T07:24:21.191Z,3.20
2023-03-11T07:25:21.179Z,2.80
2023-03-11T07:26:21.163Z,3.20
2023-03-11T07:27:21.153Z,3.20
2023-03-11T07:28:21.144Z,3.60
2023-03-11T07:29:21.207Z,3.00
2023-03-11T07:30:21.126Z,3.10
2023-03-11T07:31:21.321Z,2.50
2023-03-11T07:32:21.182Z,2.20
2023-03-11T07:33:21.096Z,2.70
2023-03-11T07:34:21.078Z,2.70
2023-03-11T07:35:21.091Z,2.40
2023-03-11T07:36:21.056Z,2.60
2023-03-11T07:37:21.044Z,2.20
2023-03-11T07:38:21.104Z,2.40
2023-03-11T07:39:21.023Z,2.80
2023-03-11T07:40:21.244Z,2.30
2023-03-11T07:41:21.000Z,2.50
2023-03-11T07:42:20.987Z,2.70
2023-03-11T07:43:21.057Z,2.30
2023-03-11T07:44:20.972Z,2.20
2023-03-11T07:45:20.957Z,2.50
2023-03-11T07:46:20.951Z,3.10
2023-03-11T07:47:20.945Z,2.40
2023-03-11T07:48:20.932Z,3.10
2023-03-11T07:49:20.913Z,2.60
2023-03-11T07:50:20.900Z,2.10
2023-03-11T07:51:20.916Z,2.80
2023-03-11T07:52:20.875Z,3.00
2023-03-11T07:53:20.866Z,2.60
2023-03-11T07:54:20.859Z,3.00
2023-03-11T07:55:20.855Z,2.90
2023-03-11T07:56:20.834Z,2.70
2023-03-11T07:57:20.828Z,2.90
2023-03-11T07:58:20.810Z,2.90
2023-03-11T07:59:20.801Z,2.80
2023-03-11T08:00:20.791Z,2.80
2023-03-11T08:01:20.787Z,2.50
2023-03-11T08:02:20.842Z,2.90
2023-03-11T08:03:20.777Z,2.70
2023-03-11T08:04:20.747Z,2.80
2023-03-11T08:05:21.003Z,2.60
2023-03-11T08:06:20.773Z,2.70
2023-03-11T08:07:20.745Z,2.60
2023-03-11T08:08:20.701Z,2.40
2023-03-11T08:09:20.697Z,3.10
2023-03-11T08:10:20.690Z,2.90
2023-03-11T08:11:20.704Z,3.30
2023-03-11T08:12:20.660Z,2.60
2023-03-11T08:13:20.645Z,2.60
2023-03-11T08:14:20.634Z,2.40
2023-03-11T08:15:20.628Z,3.90
2023-03-11T08:16:20.615Z,2.60
2023-03-11T08:17:20.603Z,2.60
2023-03-11T08:18:20.595Z,2.10
2023-03-11T08:19:20.583Z,2.60
2023-03-11T08:20:20.569Z,2.80
2023-03-11T08:21:20.560Z,2.30
2023-03-11T08:22:20.565Z,2.40
2023-03-11T08:23:20.576Z,2.30
2023-03-11T08:24:20.557Z,2.40
2023-03-11T08:25:20.514Z,2.60
2023-03-11T08:26:20.505Z,2.30
2023-03-11T08:27:20.490Z,3.00
2023-03-11T08:28:20.483Z,2.00
2023-03-11T08:29:20.481Z,2.50
2023-03-11T08:30:20.465Z,3.20
2023-03-11T08:31:20.494Z,2.70
2023-03-11T08:32:20.521Z,2.60
2023-03-11T08:33:20.435Z,2.90
2023-03-11T08:34:20.416Z,2.30
2023-03-11T08:35:20.413Z,2.40
2023-03-11T08:36:20.401Z,2.60
2023-03-11T08:37:22.187Z,2.30
2023-03-11T08:38:20.375Z,2.40
2023-03-11T08:39:20.395Z,2.50
2023-03-11T08:40:20.355Z,2.40
2023-03-11T08:41:20.341Z,2.60
2023-03-11T08:42:20.330Z,2.30
2023-03-11T08:43:20.334Z,2.20
2023-03-11T08:44:20.318Z,2.90
2023-03-11T08:45:20.293Z,2.60
2023-03-11T08:46:20.314Z,2.70
2023-03-11T08:47:20.273Z,2.00
2023-03-11T08:48:20.261Z,2.40
2023-03-11T08:49:20.254Z,2.50
2023-03-11T08:50:20.243Z,2.40
2023-03-11T08:51:20.241Z,2.40
2023-03-11T08:52:20.215Z,2.30
2023-03-11T08:53:20.214Z,2.30
2023-03-11T08:54:20.194Z,2.70
2023-03-11T08:55:20.210Z,2.70
2023-03-11T08:56:20.181Z,2.60
2023-03-11T08:57:20.262Z,3.10
2023-03-11T08:58:20.152Z,2.50
2023-03-11T08:59:20.158Z,3.20
2023-03-11T09:00:20.129Z,2.70
2023-03-11T09:01:20.249Z,2.60
2023-03-11T09:02:20.199Z,2.90
2023-03-11T09:03:20.121Z,3.50
2023-03-11T09:04:20.086Z,2.40
2023-03-11T09:05:20.072Z,3.20
2023-03-11T09:06:20.070Z,2.70
2023-03-11T09:07:20.048Z,2.70
2023-03-11T09:08:20.034Z,2.70
2023-03-11T09:09:20.027Z,2.50
2023-03-11T09:10:20.016Z,2.60
2023-03-11T09:11:20.040Z,2.60
2023-03-11T09:12:19.992Z,2.40
2023-03-11T09:13:19.992Z,2.30
2023-03-11T09:14:20.027Z,2.50
2023-03-11T09:15:19.968Z,2.40
2023-03-11T09:16:20.038Z,2.20
2023-03-11T09:17:19.944Z,2.60
2023-03-11T09:18:19.928Z,2.50
2023-03-11T09:19:19.931Z,2.50
2023-03-11T09:20:19.943Z,2.60
2023-03-11T09:21:19.899Z,2.30
2023-03-11T09:22:19.891Z,2.80
2023-03-11T09:23:19.883Z,3.00
2023-03-11T09:24:19.858Z,2.40
2023-03-11T09:25:19.865Z,2.50
2023-03-11T09:26:19.843Z,2.90
2023-03-11T09:27:19.853Z,2.40
2023-03-11T09:28:19.839Z,2.50
2023-03-11T09:29:19.806Z,2.30
2023-03-11T09:30:19.796Z,2.00
2023-03-11T09:31:19.850Z,2.40
2023-03-11T09:32:19.846Z,2.40
2023-03-11T09:33:19.781Z,2.20
2023-03-11T09:34:19.789Z,2.40
2023-03-11T09:35:19.748Z,2.50
2023-03-11T09:36:19.753Z,2.40
2023-03-11T09:37:19.723Z,2.50
2023-03-11T09:38:19.710Z,2.90
2023-03-11T09:39:19.708Z,2.50
2023-03-11T09:40:19.687Z,2.20
2023-03-11T09:41:19.680Z,2.50
2023-03-11T09:42:19.672Z,2.50
2023-03-11T09:43:19.681Z,2.70
2023-03-11T09:44:19.643Z,2.40
2023-03-11T09:45:19.635Z,2.30
2023-03-11T09:46:19.684Z,1.90
2023-03-11T09:47:19.658Z,2.60
2023-03-11T09:48:22.364Z,2.10
2023-03-11T09:49:19.590Z,2.40
2023-03-11T09:50:19.574Z,2.30
2023-03-11T09:51:19.570Z,2.40
2023-03-11T09:52:19.557Z,2.30
2023-03-11T09:53:19.542Z,1.90
2023-03-11T09:54:19.531Z,2.70
2023-03-11T09:55:19.516Z,2.40
2023-03-11T09:56:19.503Z,2.60
2023-03-11T09:57:19.492Z,2.80
2023-03-11T09:58:19.495Z,3.20
2023-03-11T09:59:19.512Z,2.30
2023-03-11T10:00:19.463Z,2.20
2023-03-11T10:01:19.456Z,2.30
2023-03-11T10:02:19.579Z,2.30
2023-03-11T10:03:19.528Z,2.20
2023-03-11T10:04:19.422Z,2.30
2023-03-11T10:05:19.404Z,2.60
2023-03-11T10:06:19.393Z,2.20
2023-03-11T10:07:19.383Z,2.10
2023-03-11T10:08:19.372Z,2.80
2023-03-11T10:09:19.364Z,2.40
2023-03-11T10:10:19.450Z,2.40
2023-03-11T10:11:19.337Z,2.30
2023-03-11T10:12:19.337Z,2.30
2023-03-11T10:13:19.315Z,2.20
2023-03-11T10:14:19.305Z,2.80
2023-03-11T10:15:19.470Z,2.30
2023-03-11T10:16:19.377Z,2.30
2023-03-11T10:17:19.378Z,2.30
2023-03-11T10:18:19.273Z,2.40
2023-03-11T10:19:19.253Z,2.20
2023-03-11T10:20:19.241Z,2.60
2023-03-11T10:21:19.245Z,2.60
2023-03-11T10:22:19.225Z,2.40
2023-03-11T10:23:19.428Z,2.40
2023-03-11T10:24:19.223Z,2.10
2023-03-11T10:25:19.192Z,2.20
2023-03-11T10:26:19.171Z,2.70
2023-03-11T10:27:19.160Z,2.30
2023-03-11T10:28:19.150Z,2.50
2023-03-11T10:29:19.141Z,2.40
2023-03-11T10:30:19.130Z,1.90
2023-03-11T10:31:19.257Z,1.90
2023-03-11T10:32:19.135Z,1.90
2023-03-11T10:33:19.102Z,2.30
2023-03-11T10:34:19.093Z,2.30
2023-03-11T10:35:19.086Z,2.50
2023-03-11T10:36:19.059Z,2.40
2023-03-11T10:37:19.060Z,2.50
2023-03-11T10:38:19.048Z,2.30
2023-03-11T10:39:19.036Z,2.10
2023-03-11T10:40:19.017Z,2.10
2023-03-11T10:41:19.014Z,2.30
2023-03-11T10:42:18.996Z,2.10
2023-03-11T10:43:19.000Z,2.10
2023-03-11T10:44:18.972Z,1.90
2023-03-11T10:45:18.969Z,2.10
2023-03-11T10:46:19.034Z,2.10
2023-03-11T10:47:18.965Z,2.10
2023-03-11T10:48:18.933Z,2.00
2023-03-11T10:49:18.922Z,2.10
2023-03-11T10:50:18.913Z,2.20
2023-03-11T10:51:18.898Z,2.20
2023-03-11T10:52:18.894Z,2.10
2023-03-11T10:53:18.873Z,2.30
2023-03-11T10:54:18.862Z,2.40
2023-03-11T10:55:18.852Z,1.90
2023-03-11T10:56:18.851Z,2.10
2023-03-11T10:57:18.837Z,2.50
2023-03-11T10:58:18.821Z,1.90
2023-03-11T10:59:18.813Z,2.10
2023-03-11T11:00:18.928Z,2.10
2023-03-11T11:01:18.872Z,2.00
2023-03-11T11:02:18.812Z,2.20
2023-03-11T11:03:18.874Z,2.00
2023-03-11T11:04:18.844Z,2.20
2023-03-11T11:05:18.892Z,2.10
2023-03-11T11:06:18.799Z,2.00
2023-03-11T11:07:18.914Z,1.90
2023-03-11T11:08:18.913Z,2.30
2023-03-11T11:09:18.784Z,2.10
2023-03-11T11:10:18.787Z,2.00
2023-03-11T11:11:18.693Z,1.90
2023-03-11T11:12:18.688Z,2.10
2023-03-11T11:13:18.672Z,2.10
2023-03-11T11:14:18.655Z,2.00
2023-03-11T11:15:18.642Z,2.20
2023-03-11T11:16:18.823Z,1.70
2023-03-11T11:17:18.625Z,2.00
2023-03-11T11:18:18.605Z,1.50
2023-03-11T11:19:18.724Z,1.70
2023-03-11T11:20:18.622Z,2.10
2023-03-11T11:21:18.588Z,2.10
2023-03-11T11:22:18.567Z,1.90
2023-03-11T11:23:18.565Z,2.00
2023-03-11T11:24:18.544Z,1.90
2023-03-11T11:25:18.571Z,1.90
2023-03-11T11:26:18.672Z,1.90
2023-03-11T11:27:18.516Z,1.90
2023-03-11T11:28:18.523Z,1.90
2023-03-11T11:29:18.491Z,2.30
2023-03-11T11:30:18.525Z,2.10
2023-03-11T11:31:18.560Z,2.30
2023-03-11T11:32:18.502Z,2.00
2023-03-11T11:33:18.473Z,2.60
2023-03-11T11:34:18.459Z,1.80
2023-03-11T11:35:18.545Z,2.10
2023-03-11T11:36:18.412Z,1.80
2023-03-11T11:37:18.399Z,1.60
2023-03-11T11:38:18.391Z,1.50
2023-03-11T11:39:18.379Z,1.60
2023-03-11T11:40:18.471Z,2.30
2023-03-11T11:41:18.358Z,1.90
2023-03-11T11:42:18.348Z,2.00
2023-03-11T11:43:18.341Z,2.10
2023-03-11T11:44:18.320Z,2.10
2023-03-11T11:45:18.310Z,1.70
2023-03-11T11:46:18.351Z,1.60
2023-03-11T11:47:18.287Z,2.20
2023-03-11T11:48:18.279Z,1.70
2023-03-11T11:49:18.266Z,2.00
2023-03-11T11:50:18.294Z,1.90
2023-03-11T11:51:18.272Z,1.70
2023-03-11T11:52:18.245Z,1.80
2023-03-11T11:53:18.221Z,2.10
2023-03-11T11:54:18.214Z,1.90
2023-03-11T11:55:18.199Z,1.90
2023-03-11T11:56:18.199Z,2.50
2023-03-11T11:57:18.345Z,2.80
2023-03-11T11:58:18.187Z,1.90
2023-03-11T11:59:18.158Z,1.70
2023-03-11T12:00:18.162Z,2.00
2023-03-11T12:01:18.132Z,1.70
2023-03-11T12:02:18.123Z,1.80
2023-03-11T12:03:18.152Z,1.90
2023-03-11T12:04:18.116Z,1.80
2023-03-11T12:05:18.153Z,1.90
2023-03-11T12:06:18.076Z,1.60
2023-03-11T12:07:18.092Z,1.40
2023-03-11T12:08:18.052Z,1.50
2023-03-11T12:09:18.044Z,1.60
2023-03-11T12:10:23.315Z,1.40
2023-03-11T12:11:18.036Z,1.40
2023-03-11T12:12:18.015Z,1.90
2023-03-11T12:13:18.044Z,1.90
2023-03-11T12:14:17.995Z,1.60
2023-03-11T12:15:17.989Z,1.60
2023-03-11T12:16:18.053Z,1.70
2023-03-11T12:17:17.955Z,1.80
2023-03-11T12:18:17.943Z,1.90
2023-03-11T12:19:17.938Z,1.70
2023-03-11T12:20:17.927Z,1.30
2023-03-11T12:21:17.915Z,1.90
2023-03-11T12:22:17.906Z,1.60
2023-03-11T12:23:17.912Z,1.50
2023-03-11T12:24:17.879Z,2.00
2023-03-11T12:25:17.873Z,1.80
2023-03-11T12:26:17.863Z,1.70
2023-03-11T12:27:17.847Z,1.90
2023-03-11T12:28:17.834Z,1.70
2023-03-11T12:29:17.852Z,1.20
2023-03-11T12:30:17.900Z,1.40
2023-03-11T12:31:17.881Z,1.30
2023-03-11T12:32:17.854Z,1.50
2023-03-11T12:33:17.782Z,1.50
2023-03-11T12:34:17.771Z,1.30
2023-03-11T12:41:03.773Z,1.70
2023-03-11T12:42:03.737Z,1.60
2023-03-11T12:43:03.729Z,1.40
2023-03-11T12:53:40.494Z,1.30
2023-03-11T12:54:40.483Z,1.50
2023-03-11T12:55:40.470Z,1.40
2023-03-11T12:56:40.488Z,1.50
2023-03-11T12:57:40.467Z,1.50
2023-03-11T12:58:40.442Z,2.40
2023-03-11T12:59:40.430Z,1.40
2023-03-11T13:00:40.444Z,1.70
2023-03-11T13:01:40.460Z,1.50
2023-03-11T13:02:40.404Z,1.60
2023-03-11T13:03:40.417Z,1.80
2023-03-11T13:04:40.377Z,1.60
2023-03-11T13:05:40.365Z,1.40
2023-03-11T13:06:40.352Z,1.10
2023-03-11T13:07:40.352Z,1.60
2023-03-11T13:08:40.330Z,1.60
2023-03-11T13:09:40.329Z,1.60
2023-03-11T13:10:40.311Z,1.50
2023-03-11T13:11:40.300Z,1.60
2023-03-11T13:12:40.316Z,1.30
2023-03-11T13:13:40.331Z,1.80
2023-03-11T13:14:40.269Z,1.30
2023-03-11T13:15:40.255Z,1.40
2023-03-11T13:16:40.359Z,1.30
2023-03-11T13:17:40.244Z,1.90
2023-03-11T13:18:40.224Z,1.50
2023-03-11T13:19:40.217Z,1.60
2023-03-11T13:20:40.201Z,1.40
2023-03-11T13:21:40.192Z,1.60
2023-03-11T13:22:40.179Z,1.20
2023-03-11T13:23:40.171Z,1.60
2023-03-11T13:24:40.160Z,1.40
2023-03-11T13:25:40.152Z,1.50
2023-03-11T13:26:40.139Z,1.50
2023-03-11T13:27:40.130Z,1.90
2023-03-11T13:28:40.142Z,1.40
2023-03-11T13:29:40.106Z,1.70
2023-03-11T13:30:40.094Z,1.30
2023-03-11T13:31:40.214Z,1.40
2023-03-11T13:32:40.188Z,1.60
2023-03-11T13:33:40.061Z,1.40